Terminal Aerodrome Forecast
Issued by NWS

Home | Current Version | Previous Version | Text Only | Print | Product List | Glossary On
Versions: 1 2 3 4 5 6 7 8 9 10 11 12
854
FTUS44 KTSA 250520
TAFMLC
TAF
KMLC 250520Z 2506/2606 13005KT P6SM FEW250
     FM251800 09005KT P6SM SCT050 BKN250 PROB30 2518/2524 5SM -TSRA
      BKN040CB
     FM260000 VRB03KT P6SM BKN250=

USA.gov is the U.S. government's official web portal to all federal, state and local government web resources and services.